Flight Track Log - Related Links

Times and Time Zones

All times are in EDT time to prevent confusion due to time zone crossing. See the UPS1122 flight status page for this flight to view local times or setup timezone preferences in your user account.

Time Position Orientation Groundspeed Altitude Reporting Facility
EDT Latitude Longitude Course Direction KTS MPH feet Rate Location/Type
Wed 03:46:40 39.8624 -75.2665 251° West 140 161 900  Level FlightAware ADS-B
Wed 03:46:44 39.8614 -75.2696 247° West 139 160 1,200 3,333 Climbing FlightAware ADS-B
Wed 03:46:49 39.8600 -75.2732 243° Southwest 139 160 1,400 2,667 Climbing FlightAware ADS-B
Wed 03:46:53 39.8585 -75.2764 239° Southwest 141 162 1,600 1,286 Climbing FlightAware ADS-B
Wed 03:47:03 39.8551 -75.2835 238° Southwest 153 176 1,700 522 Climbing FlightAware ADS-B
Wed 03:47:16 39.8494 -75.2944 236° Southwest 170 196 1,800 720 Climbing FlightAware ADS-B
Wed 03:47:28 39.8437 -75.3053 236° Southwest 185 213 2,000 1,667 Climbing FlightAware ADS-B
Wed 03:47:34 39.8407 -75.3109 235° Southwest 189 217 2,300 2,667 Climbing FlightAware ADS-B
Wed 03:47:37 39.8388 -75.3137 229° Southwest 193 222 2,400 1,714 Climbing FlightAware ADS-B
Wed 03:47:41 39.8366 -75.3165 224° Southwest 198 228 2,500 2,667 Climbing FlightAware ADS-B
Wed 03:47:46 39.8321 -75.3204 214° Southwest 208 239 2,800 3,333 Climbing FlightAware ADS-B
Wed 03:47:50 39.8290 -75.3220 202° Southwest 213 245 3,000 2,571 Climbing FlightAware ADS-B
Wed 03:47:53 39.8255 -75.3229 191° South 217 250 3,100 2,571 Climbing FlightAware ADS-B
Wed 03:47:57 39.8220 -75.3232 184° South 224 258 3,300 2,571 Climbing FlightAware ADS-B
Wed 03:48:00 39.8188 -75.3229 176° South 229 264 3,400 3,000 Climbing FlightAware ADS-B
Wed 03:48:03 39.8156 -75.3221 169° South 234 269 3,600 3,000 Climbing FlightAware ADS-B
Wed 03:48:06 39.8123 -75.3208 163° South 239 275 3,700 2,000 Climbing FlightAware ADS-B
Wed 03:48:09 39.8084 -75.3190 160° South 245 282 3,800 2,250 Climbing FlightAware ADS-B
Wed 03:48:14 39.8032 -75.3157 154° Southeast 254 292 4,000 1,800 Climbing FlightAware ADS-B
Wed 03:48:19 39.7985 -75.3119 148° Southeast 264 304 4,100 1,500 Climbing FlightAware ADS-B
Wed 03:48:22 39.7953 -75.3089 144° Southeast 271 312 4,200 1,714 Climbing FlightAware ADS-B
Wed 03:48:26 39.7917 -75.3046 137° Southeast 278 320 4,300 1,714 Climbing FlightAware ADS-B
Wed 03:48:29 39.7893 -75.3010 131° Southeast 282 325 4,400 1,714 Climbing FlightAware ADS-B
Wed 03:48:33 39.7858 -75.2945 125° Southeast 287 330 4,500 1,714 Climbing FlightAware ADS-B
Wed 03:48:36 39.7840 -75.2899 117° Southeast 291 335 4,600 2,571 Climbing FlightAware ADS-B
Wed 03:48:40 39.7824 -75.2846 111° Southeast 293 337 4,800 3,000 Climbing FlightAware ADS-B
Wed 03:48:44 39.7809 -75.2775 105° East 293 337 5,000 2,571 Climbing FlightAware ADS-B
Wed 03:48:47 39.7803 -75.2719 98° East 290 334 5,100 3,000 Climbing FlightAware ADS-B
Wed 03:48:50 39.7802 -75.2660 91° East 288 331 5,300 3,429 Climbing FlightAware ADS-B
Wed 03:48:54 39.7806 -75.2605 85° East 288 331 5,500 3,750 Climbing FlightAware ADS-B
Wed 03:48:58 39.7818 -75.2523 79° East 288 331 5,800 2,824 Climbing FlightAware ADS-B
Wed 03:49:11 39.7861 -75.2305 76° East 295 339 6,300 2,100 Climbing FlightAware ADS-B
Wed 03:49:18 39.7881 -75.2189 77° East 302 348 6,500 1,636 Climbing FlightAware ADS-B
Wed 03:49:22 39.7890 -75.2120 80° East 305 351 6,600 3,000 Climbing FlightAware ADS-B
Wed 03:49:28 39.7900 -75.1995 84° East 307 353 7,000 3,000 Climbing FlightAware ADS-B
Wed 03:49:44 39.7909 -75.1710 88° East 309 356 7,700 2,903 Climbing FlightAware ADS-B
Wed 03:49:59 39.7912 -75.1427 89° East 309 356 8,500 3,103 Climbing FlightAware ADS-B
Wed 03:50:13 39.7912 -75.1157 90° East 313 360 9,200 2,903 Climbing FlightAware ADS-B
Wed 03:50:30 39.7915 -75.0838 89° East 318 366 10,000 2,286 Climbing FlightAware ADS-B
Wed 03:50:55 39.7927 -75.0349 88° East 337 388 10,800 1,636 Climbing FlightAware ADS-B
Wed 03:51:25 39.7928 -74.9705 90° East 369 425 11,500 1,393 Climbing FlightAware ADS-B
Wed 03:51:51 39.7934 -74.9126 89° East 391 450 12,100 1,862 Climbing FlightAware ADS-B
Wed 03:52:23 39.7949 -74.8347 89° East 403 464 13,300 2,164 Climbing FlightAware ADS-B
Wed 03:52:52 39.7961 -74.7639 89° East 418 481 14,300 2,057 Climbing FlightAware ADS-B
Wed 03:52:58 39.7973 -74.7489 84° East 419 482 14,500 2,500 Climbing FlightAware ADS-B
Wed 03:53:04 39.8003 -74.7327 76° East 418 481 14,800 3,000 Climbing FlightAware ADS-B
Wed 03:53:10 39.8039 -74.7200 70° East 417 480 15,100 2,727 Climbing FlightAware ADS-B
Wed 03:53:15 39.8086 -74.7080 63° Northeast 415 478 15,300 2,667 Climbing FlightAware ADS-B
Wed 03:53:19 39.8131 -74.6993 56° Northeast 414 476 15,500 2,308 Climbing FlightAware ADS-B
Wed 03:53:28 39.8234 -74.6839 49° Northeast 413 475 15,800 2,000 Climbing FlightAware ADS-B
Wed 03:53:34 39.8321 -74.6742 41° Northeast 412 474 16,000 2,400 Climbing FlightAware ADS-B
Wed 03:53:43 39.8474 -74.6609 34° Northeast 410 472 16,400 2,743 Climbing FlightAware ADS-B
Wed 03:54:09 39.8898 -74.6278 31° Northeast 408 470 17,600 2,316 Climbing FlightAware ADS-B
Wed 03:54:40 39.9384 -74.5868 33° Northeast 417 480 18,600 2,082 Climbing FlightAware ADS-B
Wed 03:54:58 39.9681 -74.5607 34° Northeast 421 484 19,300 2,125 Climbing FlightAware ADS-B
Wed 03:55:28 40.0163 -74.5164 35° Northeast 426 490 20,300 1,645 Climbing FlightAware ADS-B
Wed 03:56:00 40.0671 -74.4694 35° Northeast 424 488 21,000 677 Climbing FlightAware ADS-B
Wed 03:56:30 40.1160 -74.4238 35° Northeast 423 487 21,000  Level FlightAware ADS-B
Wed 03:57:00 40.1642 -74.3789 35° Northeast 422 486 21,000  Level FlightAware ADS-B
Wed 03:57:31 40.2133 -74.3333 35° Northeast 421 484 21,000  Level FlightAware ADS-B
Wed 03:58:02 40.2616 -74.2884 35° Northeast 420 483 21,000  Level FlightAware ADS-B
Wed 03:58:32 40.3094 -74.2439 35° Northeast 416 479 21,000  Level FlightAware ADS-B
Wed 03:59:02 40.3570 -74.1995 35° Northeast 414 476 21,000  Level FlightAware ADS-B
Wed 03:59:33 40.4053 -74.1543 35° Northeast 413 475 21,000  Level FlightAware ADS-B
Wed 04:00:03 40.4521 -74.1104 36° Northeast 416 479 21,000  Level FlightAware ADS-B
Wed 04:00:33 40.4992 -74.0662 36° Northeast 417 480 21,000  Level FlightAware ADS-B
Wed 04:01:04 40.5468 -74.0215 36° Northeast 420 483 21,000  Level FlightAware ADS-B
Wed 04:01:34 40.5944 -73.9773 35° Northeast 420 483 21,000  Level FlightAware ADS-B
Wed 04:02:04 40.6429 -73.9322 35° Northeast 423 487 21,000  Level FlightAware ADS-B
Wed 04:02:34 40.6918 -73.8871 35° Northeast 423 487 21,000  Level FlightAware ADS-B
Wed 04:03:05 40.7406 -73.8416 35° Northeast 424 488 21,000  Level FlightAware ADS-B
Wed 04:03:35 40.7897 -73.7955 35° Northeast 425 489 21,000  Level FlightAware ADS-B
Wed 04:04:06 40.8384 -73.7496 35° Northeast 424 488 21,000  Level FlightAware ADS-B
Wed 04:04:36 40.8863 -73.7043 36° Northeast 422 486 21,000  Level FlightAware ADS-B
Wed 04:05:06 40.9347 -73.6583 36° Northeast 422 486 21,000  Level FlightAware ADS-B
Wed 04:05:37 40.9836 -73.6116 36° Northeast 421 484 21,000  Level FlightAware ADS-B
Wed 04:06:08 41.0319 -73.5652 36° Northeast 420 483 21,000  Level FlightAware ADS-B
Wed 04:06:38 41.0795 -73.5194 36° Northeast 420 483 21,000 -1,574 Level FlightAware ADS-B
Wed 04:07:09 41.1300 -73.4711 36° Northeast 429 494 19,400 -2,806 Descending FlightAware ADS-B
Wed 04:07:40 41.1788 -73.4243 36° Northeast 429 494 18,100 -2,557 Descending FlightAware ADS-B
Wed 04:08:10 41.2282 -73.3769 36° Northeast 423 487 16,800 -2,417 Descending FlightAware ADS-B
Wed 04:08:52 41.2935 -73.3141 36° Northeast 413 475 15,200 -2,386 Descending FlightAware ADS-B
Wed 04:09:33 41.3560 -73.2540 36° Northeast 406 467 13,500 -1,683 Descending FlightAware ADS-B
Wed 04:10:14 41.4120 -73.2000 36° Northeast 406 467 12,900 -468 Descending FlightAware ADS-B
Wed 04:10:50 41.4590 -73.1570 34° Northeast 406 467 12,900  Level FlightAware ADS-B
Wed 04:11:32 41.5140 -73.1050 35° Northeast 406 467 12,900 -1,481 Level FlightAware ADS-B
Wed 04:12:07 41.5567 -73.0642 35° Northeast 350 403 11,000 -1,941 Descending Boston Center
Wed 04:12:40 41.5986 -73.0064 46° Northeast 332 382 10,700 -1,404 Descending Boston Center
Wed 04:13:41 41.6472 -72.9039 58° Northeast 326 375 8,800 -2,083 Descending Boston Center
Wed 04:14:41 41.6933 -72.8097 57° Northeast 306 352 6,500 -2,380 Descending Boston Center
Wed 04:15:42 41.7414 -72.7128 56° Northeast 293 337 4,000 -1,820 Descending Boston Center
Wed 04:16:43 41.7833 -72.6378 53° Northeast 253 291 2,800 -992 Descending Boston Center
Wed 04:17:43 41.8208 -72.5822 48° Northeast 194 223 2,000 -446 Descending Boston Center
Wed 04:18:44 41.8667 -72.5989 345° North 163 188 1,900 -397 Descending Boston Center
Wed 04:19:44 41.8917 -72.6325 315° West 139 160 1,200 -694 Descending Boston Center
Wed 04:20:45 41.9167 -72.6689 313° West 130 150 500 -420 Descending Boston Center
Wed 04:22:07 41.9542 -72.7081 322° Northwest 135 155 200 -220 Descending Boston Center
Wed 04:28:00 41.9333 -72.6833 143° Southeast  Level FlightAware Approximate

Login

Don't have an account? Register now (free) for customized features, flight alerts, and more!